sensor_id;sensor_type;location;lat;lon;timestamp;temperature;humidity
8988;DHT22;4529;51.360;12.474;2022-11-15T00:04:36;7.20;99.90
8988;DHT22;4529;51.360;12.474;2022-11-15T00:09:40;7.40;99.90
8988;DHT22;4529;51.360;12.474;2022-11-15T00:14:43;7.40;99.90
8988;DHT22;4529;51.360;12.474;2022-11-15T00:19:47;7.60;99.90
8988;DHT22;4529;51.360;12.474;2022-11-15T00:24:50;7.60;99.90
8988;DHT22;4529;51.360;12.474;2022-11-15T00:29:54;7.70;99.90
8988;DHT22;4529;51.360;12.474;2022-11-15T00:34:59;7.80;99.90
8988;DHT22;4529;51.360;12.474;2022-11-15T00:40:03;7.80;99.90
8988;DHT22;4529;51.360;12.474;2022-11-15T00:45:06;7.80;99.90
8988;DHT22;4529;51.360;12.474;2022-11-15T00:50:10;7.90;99.90
8988;DHT22;4529;51.360;12.474;2022-11-15T00:55:17;8.00;99.90
8988;DHT22;4529;51.360;12.474;2022-11-15T01:00:20;8.20;99.90
8988;DHT22;4529;51.360;12.474;2022-11-15T01:05:25;8.40;99.90
8988;DHT22;4529;51.360;12.474;2022-11-15T01:10:29;8.60;99.90
8988;DHT22;4529;51.360;12.474;2022-11-15T01:15:33;8.70;99.90
8988;DHT22;4529;51.360;12.474;2022-11-15T01:20:40;8.70;99.90
8988;DHT22;4529;51.360;12.474;2022-11-15T01:25:43;8.80;99.90
8988;DHT22;4529;51.360;12.474;2022-11-15T01:30:46;8.90;99.90
8988;DHT22;4529;51.360;12.474;2022-11-15T01:35:50;9.10;99.90
8988;DHT22;4529;51.360;12.474;2022-11-15T01:40:54;9.20;99.90
8988;DHT22;4529;51.360;12.474;2022-11-15T01:46:23;9.20;99.90
8988;DHT22;4529;51.360;12.474;2022-11-15T01:51:25;9.30;99.90
8988;DHT22;4529;51.360;12.474;2022-11-15T01:56:30;9.40;99.90
8988;DHT22;4529;51.360;12.474;2022-11-15T02:01:32;9.40;99.90
8988;DHT22;4529;51.360;12.474;2022-11-15T02:06:36;9.40;99.90
8988;DHT22;4529;51.360;12.474;2022-11-15T02:11:40;9.40;99.90
8988;DHT22;4529;51.360;12.474;2022-11-15T02:16:57;9.40;99.90
8988;DHT22;4529;51.360;12.474;2022-11-15T02:27:53;9.20;99.90
8988;DHT22;4529;51.360;12.474;2022-11-15T02:33:26;9.20;99.90
8988;DHT22;4529;51.360;12.474;2022-11-15T02:44:19;9.30;99.90
8988;DHT22;4529;51.360;12.474;2022-11-15T02:49:21;9.30;99.90
8988;DHT22;4529;51.360;12.474;2022-11-15T02:54:25;9.30;99.90
8988;DHT22;4529;51.360;12.474;2022-11-15T03:04:39;9.20;99.90
8988;DHT22;4529;51.360;12.474;2022-11-15T03:09:53;8.90;99.90
8988;DHT22;4529;51.360;12.474;2022-11-15T03:14:59;8.80;99.90
8988;DHT22;4529;51.360;12.474;2022-11-15T03:20:01;8.60;99.90
8988;DHT22;4529;51.360;12.474;2022-11-15T03:25:06;8.20;99.90
8988;DHT22;4529;51.360;12.474;2022-11-15T03:30:09;8.00;99.90
8988;DHT22;4529;51.360;12.474;2022-11-15T03:35:14;8.10;99.90
8988;DHT22;4529;51.360;12.474;2022-11-15T03:40:16;8.00;99.90
8988;DHT22;4529;51.360;12.474;2022-11-15T03:45:39;7.80;99.90
8988;DHT22;4529;51.360;12.474;2022-11-15T03:50:40;7.70;99.90
8988;DHT22;4529;51.360;12.474;2022-11-15T03:55:43;7.60;99.90
8988;DHT22;4529;51.360;12.474;2022-11-15T04:00:47;7.50;99.90
8988;DHT22;4529;51.360;12.474;2022-11-15T04:05:50;7.50;99.90
8988;DHT22;4529;51.360;12.474;2022-11-15T04:10:54;7.50;99.90
8988;DHT22;4529;51.360;12.474;2022-11-15T04:15:59;7.50;99.90
8988;DHT22;4529;51.360;12.474;2022-11-15T04:21:04;7.40;99.90
8988;DHT22;4529;51.360;12.474;2022-11-15T04:26:16;7.40;99.90
8988;DHT22;4529;51.360;12.474;2022-11-15T04:31:16;7.40;99.90
8988;DHT22;4529;51.360;12.474;2022-11-15T04:36:21;7.30;99.90
8988;DHT22;4529;51.360;12.474;2022-11-15T04:41:25;7.40;99.90
8988;DHT22;4529;51.360;12.474;2022-11-15T04:46:29;7.50;99.90
8988;DHT22;4529;51.360;12.474;2022-11-15T04:51:32;7.50;99.90
8988;DHT22;4529;51.360;12.474;2022-11-15T04:56:36;7.60;99.90
8988;DHT22;4529;51.360;12.474;2022-11-15T05:01:39;7.70;99.90
8988;DHT22;4529;51.360;12.474;2022-11-15T05:06:43;7.80;99.90
8988;DHT22;4529;51.360;12.474;2022-11-15T05:11:47;7.90;99.90
8988;DHT22;4529;51.360;12.474;2022-11-15T05:16:51;7.90;99.90
8988;DHT22;4529;51.360;12.474;2022-11-15T05:21:54;8.10;99.90
8988;DHT22;4529;51.360;12.474;2022-11-15T05:26:58;8.20;99.90
8988;DHT22;4529;51.360;12.474;2022-11-15T05:32:03;8.50;99.90
8988;DHT22;4529;51.360;12.474;2022-11-15T05:37:06;8.70;99.90
8988;DHT22;4529;51.360;12.474;2022-11-15T05:42:16;8.70;99.90
8988;DHT22;4529;51.360;12.474;2022-11-15T05:47:23;8.80;99.90
8988;DHT22;4529;51.360;12.474;2022-11-15T05:52:27;8.80;99.90
8988;DHT22;4529;51.360;12.474;2022-11-15T05:57:29;8.70;99.90
8988;DHT22;4529;51.360;12.474;2022-11-15T06:02:34;8.60;99.90
8988;DHT22;4529;51.360;12.474;2022-11-15T06:07:38;8.40;99.90
8988;DHT22;4529;51.360;12.474;2022-11-15T06:12:41;8.40;99.90
8988;DHT22;4529;51.360;12.474;2022-11-15T06:17:45;8.20;99.90
8988;DHT22;4529;51.360;12.474;2022-11-15T06:22:48;8.20;99.90
8988;DHT22;4529;51.360;12.474;2022-11-15T06:27:56;8.10;99.90
8988;DHT22;4529;51.360;12.474;2022-11-15T06:33:03;8.00;99.90
8988;DHT22;4529;51.360;12.474;2022-11-15T06:38:07;7.90;99.90
8988;DHT22;4529;51.360;12.474;2022-11-15T06:43:09;7.70;99.90
8988;DHT22;4529;51.360;12.474;2022-11-15T06:48:13;7.50;99.90
8988;DHT22;4529;51.360;12.474;2022-11-15T06:53:17;7.40;99.90
8988;DHT22;4529;51.360;12.474;2022-11-15T06:58:22;7.30;99.90
8988;DHT22;4529;51.360;12.474;2022-11-15T07:03:26;7.30;99.90
8988;DHT22;4529;51.360;12.474;2022-11-15T07:08:30;7.60;99.90
8988;DHT22;4529;51.360;12.474;2022-11-15T07:13:34;7.70;99.90
8988;DHT22;4529;51.360;12.474;2022-11-15T07:18:39;7.70;99.90
8988;DHT22;4529;51.360;12.474;2022-11-15T07:23:43;7.70;99.90
8988;DHT22;4529;51.360;12.474;2022-11-15T07:28:46;7.60;99.90
8988;DHT22;4529;51.360;12.474;2022-11-15T07:33:50;7.80;99.90
8988;DHT22;4529;51.360;12.474;2022-11-15T07:38:54;8.20;99.90
8988;DHT22;4529;51.360;12.474;2022-11-15T07:43:57;8.20;99.90
8988;DHT22;4529;51.360;12.474;2022-11-15T07:49:01;8.40;99.90
8988;DHT22;4529;51.360;12.474;2022-11-15T07:54:04;8.50;99.90
8988;DHT22;4529;51.360;12.474;2022-11-15T07:59:08;8.90;99.90
8988;DHT22;4529;51.360;12.474;2022-11-15T08:04:12;8.90;99.90
8988;DHT22;4529;51.360;12.474;2022-11-15T08:09:15;9.20;99.90
8988;DHT22;4529;51.360;12.474;2022-11-15T08:14:19;9.40;99.90
8988;DHT22;4529;51.360;12.474;2022-11-15T08:19:23;10.00;99.90
8988;DHT22;4529;51.360;12.474;2022-11-15T08:24:27;10.10;99.90
8988;DHT22;4529;51.360;12.474;2022-11-15T08:29:31;10.20;99.90
8988;DHT22;4529;51.360;12.474;2022-11-15T08:34:35;10.40;99.90
8988;DHT22;4529;51.360;12.474;2022-11-15T08:39:39;10.40;99.90
8988;DHT22;4529;51.360;12.474;2022-11-15T08:44:43;10.60;99.90
8988;DHT22;4529;51.360;12.474;2022-11-15T08:49:48;10.60;99.90
8988;DHT22;4529;51.360;12.474;2022-11-15T08:54:52;10.70;99.90
8988;DHT22;4529;51.360;12.474;2022-11-15T08:59:56;10.90;99.90
8988;DHT22;4529;51.360;12.474;2022-11-15T09:05:00;11.00;99.90
8988;DHT22;4529;51.360;12.474;2022-11-15T09:10:04;11.10;99.90
8988;DHT22;4529;51.360;12.474;2022-11-15T09:15:08;11.40;99.90
8988;DHT22;4529;51.360;12.474;2022-11-15T09:20:12;11.30;99.90
8988;DHT22;4529;51.360;12.474;2022-11-15T09:25:15;11.50;99.90
8988;DHT22;4529;51.360;12.474;2022-11-15T09:30:19;11.70;99.90
8988;DHT22;4529;51.360;12.474;2022-11-15T09:35:23;11.80;99.90
8988;DHT22;4529;51.360;12.474;2022-11-15T09:40:29;11.90;99.90
8988;DHT22;4529;51.360;12.474;2022-11-15T09:45:37;12.00;99.90
8988;DHT22;4529;51.360;12.474;2022-11-15T09:50:52;12.00;99.90
8988;DHT22;4529;51.360;12.474;2022-11-15T09:55:49;12.10;99.90
8988;DHT22;4529;51.360;12.474;2022-11-15T10:00:50;12.30;99.90
8988;DHT22;4529;51.360;12.474;2022-11-15T10:05:55;12.40;99.90
8988;DHT22;4529;51.360;12.474;2022-11-15T10:10:59;12.60;99.90
8988;DHT22;4529;51.360;12.474;2022-11-15T10:21:48;12.70;99.90
8988;DHT22;4529;51.360;12.474;2022-11-15T10:26:47;12.70;99.90
8988;DHT22;4529;51.360;12.474;2022-11-15T10:31:51;12.80;99.90
8988;DHT22;4529;51.360;12.474;2022-11-15T10:36:58;12.80;99.90
8988;DHT22;4529;51.360;12.474;2022-11-15T10:42:36;12.80;99.90
8988;DHT22;4529;51.360;12.474;2022-11-15T10:47:31;12.90;99.90
8988;DHT22;4529;51.360;12.474;2022-11-15T10:52:34;13.00;99.90
8988;DHT22;4529;51.360;12.474;2022-11-15T10:57:37;13.00;99.90
8988;DHT22;4529;51.360;12.474;2022-11-15T11:13:28;13.20;99.90
8988;DHT22;4529;51.360;12.474;2022-11-15T11:18:54;13.30;99.90
8988;DHT22;4529;51.360;12.474;2022-11-15T11:24:12;13.30;99.90
8988;DHT22;4529;51.360;12.474;2022-11-15T11:35:13;13.40;99.90
8988;DHT22;4529;51.360;12.474;2022-11-15T11:40:43;13.50;99.90
8988;DHT22;4529;51.360;12.474;2022-11-15T11:45:58;13.60;99.90
8988;DHT22;4529;51.360;12.474;2022-11-15T11:50:58;13.70;99.90
8988;DHT22;4529;51.360;12.474;2022-11-15T12:01:33;13.80;99.90
8988;DHT22;4529;51.360;12.474;2022-11-15T12:17:41;14.20;99.90
8988;DHT22;4529;51.360;12.474;2022-11-15T12:22:58;14.30;99.90
8988;DHT22;4529;51.360;12.474;2022-11-15T12:28:30;14.30;99.90
8988;DHT22;4529;51.360;12.474;2022-11-15T12:33:42;14.30;99.90
8988;DHT22;4529;51.360;12.474;2022-11-15T12:43:57;14.30;99.90
8988;DHT22;4529;51.360;12.474;2022-11-15T13:04:52;14.60;99.90
8988;DHT22;4529;51.360;12.474;2022-11-15T13:09:55;14.50;99.90
8988;DHT22;4529;51.360;12.474;2022-11-15T13:15:07;14.50;99.90
8988;DHT22;4529;51.360;12.474;2022-11-15T13:31:13;14.50;99.90
8988;DHT22;4529;51.360;12.474;2022-11-15T13:36:07;14.50;99.90
8988;DHT22;4529;51.360;12.474;2022-11-15T13:41:28;14.50;99.90
8988;DHT22;4529;51.360;12.474;2022-11-15T13:46:31;14.50;99.90
8988;DHT22;4529;51.360;12.474;2022-11-15T13:51:53;14.50;99.90
8988;DHT22;4529;51.360;12.474;2022-11-15T13:57:08;14.60;99.90
8988;DHT22;4529;51.360;12.474;2022-11-15T14:02:15;14.60;99.90
8988;DHT22;4529;51.360;12.474;2022-11-15T14:07:19;14.60;99.90
8988;DHT22;4529;51.360;12.474;2022-11-15T14:12:31;14.60;99.90
8988;DHT22;4529;51.360;12.474;2022-11-15T14:17:35;14.60;99.90
8988;DHT22;4529;51.360;12.474;2022-11-15T14:22:38;14.40;99.90
8988;DHT22;4529;51.360;12.474;2022-11-15T14:27:43;14.30;99.90
8988;DHT22;4529;51.360;12.474;2022-11-15T14:32:49;14.40;99.90
8988;DHT22;4529;51.360;12.474;2022-11-15T14:37:52;14.40;99.90
8988;DHT22;4529;51.360;12.474;2022-11-15T14:42:57;14.10;99.90
8988;DHT22;4529;51.360;12.474;2022-11-15T14:48:01;14.00;99.90
8988;DHT22;4529;51.360;12.474;2022-11-15T14:53:05;13.80;99.90
8988;DHT22;4529;51.360;12.474;2022-11-15T14:58:09;13.60;99.90
8988;DHT22;4529;51.360;12.474;2022-11-15T15:03:12;13.60;99.90
8988;DHT22;4529;51.360;12.474;2022-11-15T15:08:16;13.40;99.90
8988;DHT22;4529;51.360;12.474;2022-11-15T15:13:23;13.20;99.90
8988;DHT22;4529;51.360;12.474;2022-11-15T15:18:25;12.90;99.90
8988;DHT22;4529;51.360;12.474;2022-11-15T15:23:29;12.70;99.90
8988;DHT22;4529;51.360;12.474;2022-11-15T15:28:32;12.50;99.90
8988;DHT22;4529;51.360;12.474;2022-11-15T15:33:36;12.30;99.90
8988;DHT22;4529;51.360;12.474;2022-11-15T15:38:39;12.10;99.90
8988;DHT22;4529;51.360;12.474;2022-11-15T15:43:43;12.00;99.90
8988;DHT22;4529;51.360;12.474;2022-11-15T15:48:46;11.90;99.90
8988;DHT22;4529;51.360;12.474;2022-11-15T15:53:50;11.80;99.90
8988;DHT22;4529;51.360;12.474;2022-11-15T15:58:53;11.60;99.90
8988;DHT22;4529;51.360;12.474;2022-11-15T16:03:56;11.60;99.90
8988;DHT22;4529;51.360;12.474;2022-11-15T16:09:01;11.50;99.90
8988;DHT22;4529;51.360;12.474;2022-11-15T16:14:05;11.50;99.90
8988;DHT22;4529;51.360;12.474;2022-11-15T16:19:09;11.30;99.90
8988;DHT22;4529;51.360;12.474;2022-11-15T16:24:13;11.20;99.90
8988;DHT22;4529;51.360;12.474;2022-11-15T16:29:17;11.10;99.90
8988;DHT22;4529;51.360;12.474;2022-11-15T16:34:21;11.10;99.90
8988;DHT22;4529;51.360;12.474;2022-11-15T16:39:25;10.90;99.90
8988;DHT22;4529;51.360;12.474;2022-11-15T16:44:29;10.80;99.90
8988;DHT22;4529;51.360;12.474;2022-11-15T16:49:34;10.60;99.90
8988;DHT22;4529;51.360;12.474;2022-11-15T16:54:38;10.50;99.90
8988;DHT22;4529;51.360;12.474;2022-11-15T16:59:42;10.50;99.90
8988;DHT22;4529;51.360;12.474;2022-11-15T17:04:46;10.40;99.90
8988;DHT22;4529;51.360;12.474;2022-11-15T17:09:50;10.40;99.90
8988;DHT22;4529;51.360;12.474;2022-11-15T17:14:54;10.30;99.90
8988;DHT22;4529;51.360;12.474;2022-11-15T17:19:58;10.30;99.90
8988;DHT22;4529;51.360;12.474;2022-11-15T17:25:03;10.20;99.90
8988;DHT22;4529;51.360;12.474;2022-11-15T17:30:06;10.20;99.90
8988;DHT22;4529;51.360;12.474;2022-11-15T17:35:10;10.10;99.90
8988;DHT22;4529;51.360;12.474;2022-11-15T17:40:14;10.00;99.90
8988;DHT22;4529;51.360;12.474;2022-11-15T17:45:18;10.00;99.90
8988;DHT22;4529;51.360;12.474;2022-11-15T17:50:22;9.90;99.90
8988;DHT22;4529;51.360;12.474;2022-11-15T17:55:26;9.80;99.90
8988;DHT22;4529;51.360;12.474;2022-11-15T18:00:30;9.80;99.90
8988;DHT22;4529;51.360;12.474;2022-11-15T18:05:35;9.70;99.90
8988;DHT22;4529;51.360;12.474;2022-11-15T18:10:39;9.70;99.90
8988;DHT22;4529;51.360;12.474;2022-11-15T18:15:47;9.70;99.90
8988;DHT22;4529;51.360;12.474;2022-11-15T18:20:47;9.70;99.90
8988;DHT22;4529;51.360;12.474;2022-11-15T18:25:51;9.50;99.90
8988;DHT22;4529;51.360;12.474;2022-11-15T18:30:55;9.40;99.90
8988;DHT22;4529;51.360;12.474;2022-11-15T18:36:03;9.30;99.90
8988;DHT22;4529;51.360;12.474;2022-11-15T18:41:16;9.30;99.90
8988;DHT22;4529;51.360;12.474;2022-11-15T18:46:18;9.10;99.90
8988;DHT22;4529;51.360;12.474;2022-11-15T18:51:23;8.90;99.90
8988;DHT22;4529;51.360;12.474;2022-11-15T18:56:27;8.90;99.90
8988;DHT22;4529;51.360;12.474;2022-11-15T19:01:37;8.90;99.90
8988;DHT22;4529;51.360;12.474;2022-11-15T19:06:40;8.90;99.90
8988;DHT22;4529;51.360;12.474;2022-11-15T19:11:43;8.80;99.90
8988;DHT22;4529;51.360;12.474;2022-11-15T19:16:47;8.90;99.90
8988;DHT22;4529;51.360;12.474;2022-11-15T19:21:50;8.80;99.90
8988;DHT22;4529;51.360;12.474;2022-11-15T19:26:54;8.80;99.90
8988;DHT22;4529;51.360;12.474;2022-11-15T19:31:58;8.90;99.90
8988;DHT22;4529;51.360;12.474;2022-11-15T19:37:01;8.80;99.90
8988;DHT22;4529;51.360;12.474;2022-11-15T19:42:05;8.80;99.90
8988;DHT22;4529;51.360;12.474;2022-11-15T19:47:08;8.80;99.90
8988;DHT22;4529;51.360;12.474;2022-11-15T19:52:13;8.80;99.90
8988;DHT22;4529;51.360;12.474;2022-11-15T19:57:17;8.70;99.90
8988;DHT22;4529;51.360;12.474;2022-11-15T20:02:21;8.80;99.90
8988;DHT22;4529;51.360;12.474;2022-11-15T20:07:25;8.70;99.90
8988;DHT22;4529;51.360;12.474;2022-11-15T20:12:28;8.70;99.90
8988;DHT22;4529;51.360;12.474;2022-11-15T20:17:32;8.80;99.90
8988;DHT22;4529;51.360;12.474;2022-11-15T20:22:35;8.70;99.90
8988;DHT22;4529;51.360;12.474;2022-11-15T20:27:39;8.60;99.90
8988;DHT22;4529;51.360;12.474;2022-11-15T20:32:42;8.60;99.90
8988;DHT22;4529;51.360;12.474;2022-11-15T20:37:46;8.60;99.90
8988;DHT22;4529;51.360;12.474;2022-11-15T20:42:52;8.50;99.90
8988;DHT22;4529;51.360;12.474;2022-11-15T20:47:58;8.40;99.90
8988;DHT22;4529;51.360;12.474;2022-11-15T20:52:59;8.30;99.90
8988;DHT22;4529;51.360;12.474;2022-11-15T20:58:03;8.20;99.90
8988;DHT22;4529;51.360;12.474;2022-11-15T21:03:07;8.20;99.90
8988;DHT22;4529;51.360;12.474;2022-11-15T21:08:12;8.30;99.90
8988;DHT22;4529;51.360;12.474;2022-11-15T21:13:16;8.20;99.90
8988;DHT22;4529;51.360;12.474;2022-11-15T21:18:20;8.10;99.90
8988;DHT22;4529;51.360;12.474;2022-11-15T21:23:24;8.00;99.90
8988;DHT22;4529;51.360;12.474;2022-11-15T21:28:28;8.00;99.90
8988;DHT22;4529;51.360;12.474;2022-11-15T21:33:31;8.10;99.90
8988;DHT22;4529;51.360;12.474;2022-11-15T21:38:34;8.20;99.90
8988;DHT22;4529;51.360;12.474;2022-11-15T21:43:38;8.20;99.90
8988;DHT22;4529;51.360;12.474;2022-11-15T21:48:41;8.30;99.90
8988;DHT22;4529;51.360;12.474;2022-11-15T21:53:45;8.40;99.90
8988;DHT22;4529;51.360;12.474;2022-11-15T21:58:50;8.40;99.90
8988;DHT22;4529;51.360;12.474;2022-11-15T22:03:54;8.40;99.90
8988;DHT22;4529;51.360;12.474;2022-11-15T22:08:57;8.40;99.90
8988;DHT22;4529;51.360;12.474;2022-11-15T22:14:01;8.50;99.90
8988;DHT22;4529;51.360;12.474;2022-11-15T22:19:04;8.40;99.90
8988;DHT22;4529;51.360;12.474;2022-11-15T22:24:08;8.10;99.90
8988;DHT22;4529;51.360;12.474;2022-11-15T22:29:12;8.00;99.90
8988;DHT22;4529;51.360;12.474;2022-11-15T22:34:16;7.90;99.90
8988;DHT22;4529;51.360;12.474;2022-11-15T22:39:20;7.90;99.90
8988;DHT22;4529;51.360;12.474;2022-11-15T22:44:23;7.90;99.90
8988;DHT22;4529;51.360;12.474;2022-11-15T22:49:27;7.90;99.90
8988;DHT22;4529;51.360;12.474;2022-11-15T22:54:30;7.80;99.90
8988;DHT22;4529;51.360;12.474;2022-11-15T22:59:34;7.80;99.90
8988;DHT22;4529;51.360;12.474;2022-11-15T23:04:38;7.70;99.90
8988;DHT22;4529;51.360;12.474;2022-11-15T23:15:45;7.70;99.90
8988;DHT22;4529;51.360;12.474;2022-11-15T23:20:47;7.80;99.90
8988;DHT22;4529;51.360;12.474;2022-11-15T23:25:57;7.80;99.90
8988;DHT22;4529;51.360;12.474;2022-11-15T23:31:05;7.80;99.90
8988;DHT22;4529;51.360;12.474;2022-11-15T23:36:09;7.80;99.90
8988;DHT22;4529;51.360;12.474;2022-11-15T23:41:12;7.70;99.90
8988;DHT22;4529;51.360;12.474;2022-11-15T23:46:15;7.70;99.90
8988;DHT22;4529;51.360;12.474;2022-11-15T23:51:20;7.80;99.90
8988;DHT22;4529;51.360;12.474;2022-11-15T23:56:24;7.80;99.90
